Qu Shan Hai — H3JA — position and weather

sailwx.info

Track history (hours):
 
Tides and Currents Weather Stations Pressure Air Temp Water Temp Dewpoint Dewpoint Depression Visibility Wind Speed Wind Dir Waves Ship Positions

Qu Shan Hai

Last reported at 2017-Sep-19 18:09 UTC. Time now 2017-Sep-22 02:45 UTC.
Position N 04°53' W 001°44'.

Length 190 m; draft 7.1 m.

Type: Cargo ship. MMSI: 353693000.

Date/timePositionNaut miles runAvg speedWind from/ knotsBaromVisibWave heightAir tempDewpointWater temp
2017-Sep-19 18:09N 04°53' W 001°44'0 0.0
2017-Sep-19 18:00N 04°53' W 001°44'0 0.0
2017-Sep-19 17:30N 04°53' W 001°44'0 0.0
2017-Sep-19 17:00N 04°53' W 001°44'0 0.0
2017-Sep-19 16:30N 04°53' W 001°44'0 0.0
2017-Sep-19 16:00N 04°53' W 001°44'0 0.0
2017-Sep-19 15:30N 04°53' W 001°44'0 0.0
2017-Sep-19 15:00N 04°53' W 001°44'0 0.0
2017-Sep-19 14:30N 04°53' W 001°44'0 0.0
2017-Sep-19 14:00N 04°53' W 001°44'0 0.0
2017-Sep-19 13:30N 04°53' W 001°44'0 0.0
2017-Sep-19 13:00N 04°53' W 001°44'0 0.0
2017-Sep-19 12:30N 04°53' W 001°44'0 0.0
2017-Sep-19 12:00N 04°53' W 001°44'0 0.0
2017-Sep-19 11:30N 04°53' W 001°44'0 0.0
2017-Sep-19 11:00N 04°53' W 001°44'0 0.0
2017-Sep-19 10:30N 04°53' W 001°44'0 0.0
2017-Sep-19 10:00N 04°53' W 001°44'0 0.0
2017-Sep-19 09:30N 04°53' W 001°44'0 0.0
2017-Sep-19 09:00N 04°53' W 001°44'0 0.0
2017-Sep-19 08:30N 04°53' W 001°44'0 0.0
2017-Sep-19 08:00N 04°53' W 001°44'0 0.0
2017-Sep-19 07:24N 04°53' W 001°44'0 0.0
2017-Sep-19 07:00N 04°53' W 001°44'0 0.0
2017-Sep-19 06:30N 04°53' W 001°44'0 0.0
2017-Sep-19 05:57N 04°53' W 001°44'0 0.0
2017-Sep-17 23:54N 04°53' W 001°44'0 0.0
2017-Sep-17 23:12N 04°53' W 001°44'0 0.0
2017-Sep-17 09:08N 04°53' W 001°44'0 0.1
2017-Sep-17 08:59N 04°53' W 001°44'10 0.3
2017-Sep-16 02:17N 04°45' W 001°38'512.3
2017-Sep-16 01:53N 04°50' W 001°40'2 5.6
2017-Sep-16 01:26N 04°52' W 001°40'4 9.1
2017-Sep-16 00:59N 04°49' W 001°37'100 9.1
2017-Sep-15 13:56N 05°08' E 000°02'613.4
2017-Sep-15 13:30N 05°13' E 000°03'713.3
2017-Sep-15 13:01N 05°20' E 000°04'713.3
2017-Sep-15 12:31N 05°27' E 000°05'713.1
2017-Sep-15 12:01N 05°33' E 000°05'611.5
2017-Sep-15 11:31N 05°38' E 000°02'1 2.2
2017-Sep-15 10:59N 05°38' E 000°01'0 0.0
2017-Sep-15 10:29N 05°38' E 000°01'0 0.0
2017-Sep-15 09:59N 05°38' E 000°01'0 0.0
2017-Sep-15 09:29N 05°38' E 000°01'0 0.0
2017-Sep-15 08:59N 05°38' E 000°01'0 0.0
2017-Sep-15 08:29N 05°38' E 000°01'0 0.0
2017-Sep-15 07:59N 05°38' E 000°01'0 0.0
2017-Sep-15 07:29N 05°38' E 000°01'0 0.0
2017-Sep-15 06:59N 05°38' E 000°01'0 0.0
2017-Sep-15 06:29N 05°38' E 000°01'0 0.0
2017-Sep-15 05:59N 05°38' E 000°01'0 0.0
2017-Sep-15 05:29N 05°38' E 000°01'0 0.0
2017-Sep-15 04:56N 05°38' E 000°01'0 0.0
2017-Sep-15 04:29N 05°38' E 000°01'0 0.0
2017-Sep-15 03:59N 05°38' E 000°01'0 0.0
2017-Sep-15 03:29N 05°38' E 000°01'0 0.0
2017-Sep-15 02:59N 05°38' E 000°01'0 0.0
2017-Sep-15 02:29N 05°38' E 000°01'0 0.0
2017-Sep-15 01:59N 05°38' E 000°01'0 0.0
2017-Sep-15 01:26N 05°38' E 000°01'0 0.0
2017-Sep-15 00:59N 05°38' E 000°01'0 0.0
2017-Sep-15 00:29N 05°38' E 000°01'0 0.0
2017-Sep-14 23:59N 05°38' E 000°01'0 0.0
2017-Sep-14 23:29N 05°38' E 000°01'0 0.0
2017-Sep-14 22:59N 05°38' E 000°01'0 0.0
2017-Sep-14 22:29N 05°38' E 000°01'0 0.0
2017-Sep-14 21:59N 05°38' E 000°01'0 0.0
2017-Sep-14 21:29N 05°38' E 000°01'0 0.0
2017-Sep-14 20:59N 05°38' E 000°01'0 0.0
2017-Sep-14 20:29N 05°38' E 000°01'0 0.0
2017-Sep-14 19:59N 05°38' E 000°01'0 0.0
2017-Sep-14 19:29N 05°38' E 000°01'0 0.0
2017-Sep-14 18:59N 05°38' E 000°01'0 0.0
2017-Sep-14 18:29N 05°38' E 000°01'0 0.0
2017-Sep-14 17:59N 05°38' E 000°01'0 0.0
2017-Sep-14 17:23N 05°38' E 000°01'0 0.0
2017-Sep-14 16:59N 05°38' E 000°01'0 0.0
2017-Sep-14 16:29N 05°38' E 000°01'0 0.0
2017-Sep-14 15:59N 05°38' E 000°01'0 0.0
2017-Sep-14 15:29N 05°38' E 000°01'0 0.0
2017-Sep-14 14:59N 05°38' E 000°01'0 0.0
2017-Sep-14 14:29N 05°38' E 000°01'0 0.0
2017-Sep-14 13:59N 05°38' E 000°01'0 0.0
2017-Sep-14 13:29N 05°38' E 000°01'0 0.0
2017-Sep-14 12:59N 05°38' E 000°01'0 0.0
2017-Sep-14 12:29N 05°38' E 000°01'0 0.0
2017-Sep-14 11:59N 05°38' E 000°01'0 0.0
2017-Sep-14 11:29N 05°38' E 000°01'0 0.0
2017-Sep-14 10:50N 05°38' E 000°01'0 0.0
2017-Sep-14 10:29N 05°38' E 000°01'0 0.0
2017-Sep-14 09:59N 05°38' E 000°01'0 0.0
2017-Sep-14 09:29N 05°38' E 000°01'0 0.0
2017-Sep-14 08:59N 05°38' E 000°01'0 0.0
2017-Sep-14 08:29N 05°38' E 000°01'0 0.0
2017-Sep-14 07:59N 05°38' E 000°01'0 0.0
2017-Sep-14 07:29N 05°38' E 000°01'0 0.0
2017-Sep-14 06:59N 05°38' E 000°01'0 0.0
2017-Sep-14 06:29N 05°38' E 000°01'0 0.0
2017-Sep-14 05:59N 05°38' E 000°01'0 0.0
2017-Sep-14 05:29N 05°38' E 000°01'0 0.0
2017-Sep-14 04:59N 05°38' E 000°01'0 0.0
2017-Sep-14 04:29N 05°38' E 000°01'0 0.0
2017-Sep-14 03:59N 05°38' E 000°01'0 0.0
2017-Sep-14 03:23N 05°38' E 000°01'0 0.0
2017-Sep-14 02:59N 05°38' E 000°01'0 0.0
2017-Sep-14 02:29N 05°38' E 000°01'0 0.0
2017-Sep-14 01:59N 05°38' E 000°01'0 0.0
2017-Sep-14 01:29N 05°38' E 000°01'0 0.0
2017-Sep-14 00:59N 05°38' E 000°01'0 0.0
2017-Sep-14 00:29N 05°38' E 000°01'0 0.0
2017-Sep-13 23:59N 05°38' E 000°01'0 0.0
2017-Sep-13 23:29N 05°38' E 000°01'0 0.0
2017-Sep-13 22:59N 05°38' E 000°01'0 0.0
2017-Sep-13 22:29N 05°38' E 000°01'0 0.0
2017-Sep-13 21:59N 05°38' E 000°01'0 0.0
2017-Sep-13 21:26N 05°38' E 000°01'0 0.0
2017-Sep-13 20:59N 05°38' E 000°01'0 0.0
2017-Sep-13 20:29N 05°38' E 000°01'0 0.0
2017-Sep-13 19:59N 05°38' E 000°01'0 0.0
2017-Sep-13 19:29N 05°38' E 000°01'0 0.0
2017-Sep-13 18:53N 05°38' E 000°01'0 0.0
2017-Sep-13 18:29N 05°38' E 000°01'0 0.0
2017-Sep-13 17:59N 05°38' E 000°01'0 0.0
2017-Sep-13 17:29N 05°38' E 000°01'0 0.0
2017-Sep-13 16:59N 05°38' E 000°01'0 0.0
2017-Sep-13 16:29N 05°38' E 000°01'0 0.0
2017-Sep-13 15:59N 05°38' E 000°01'0 0.0
2017-Sep-13 15:26N 05°38' E 000°01'0 0.0
2017-Sep-13 14:59N 05°38' E 000°01'0 0.0
2017-Sep-13 14:29N 05°38' E 000°01'0 0.0
2017-Sep-13 13:59N 05°38' E 000°01'0 0.0
2017-Sep-13 13:26N 05°38' E 000°01'0 0.0
2017-Sep-13 12:59N 05°38' E 000°01'0 0.0
2017-Sep-13 12:29N 05°38' E 000°01'0 0.0
2017-Sep-13 11:59N 05°38' E 000°01'0 0.0
2017-Sep-13 11:29N 05°38' E 000°01'0 0.0
2017-Sep-13 10:59N 05°38' E 000°01'0 0.0
2017-Sep-13 10:29N 05°38' E 000°01'0 0.0
2017-Sep-13 09:59N 05°38' E 000°01'0 0.0
2017-Sep-13 09:29N 05°38' E 000°01'0 0.0
2017-Sep-13 08:59N 05°38' E 000°01'0 0.0
2017-Sep-13 08:29N 05°38' E 000°01'0 0.0
2017-Sep-13 07:59N 05°38' E 000°01'0 0.0
2017-Sep-13 07:29N 05°38' E 000°01'0 0.0
2017-Sep-13 06:59N 05°38' E 000°01'0 0.0
2017-Sep-13 06:29N 05°38' E 000°01'0 0.0
2017-Sep-13 05:59N 05°38' E 000°01'0 0.0
2017-Sep-13 05:29N 05°38' E 000°01'0 0.0
2017-Sep-13 04:59N 05°38' E 000°01'0 0.0
2017-Sep-13 04:29N 05°38' E 000°01'0 0.0
2017-Sep-13 03:59N 05°38' E 000°01'0 0.0
2017-Sep-13 03:26N 05°38' E 000°01'0 0.0
2017-Sep-13 02:59N 05°38' E 000°01'0 0.0
2017-Sep-13 02:29N 05°38' E 000°01'0 0.0
2017-Sep-13 01:59N 05°38' E 000°01'0 0.0
2017-Sep-13 01:29N 05°38' E 000°01'0 0.0
2017-Sep-13 00:59N 05°38' E 000°01'0 0.0
2017-Sep-13 00:29N 05°38' E 000°01'0 0.0
2017-Sep-12 23:59N 05°38' E 000°01'0 0.0
2017-Sep-12 23:29N 05°38' E 000°01'0 0.0
2017-Sep-12 22:59N 05°38' E 000°01'0 0.0
2017-Sep-12 22:29N 05°38' E 000°01'0 0.0
2017-Sep-12 21:59N 05°38' E 000°01'0 0.0
2017-Sep-12 21:29N 05°38' E 000°01'0 0.0
2017-Sep-12 20:59N 05°38' E 000°01'0 0.0
2017-Sep-12 20:29N 05°38' E 000°01'0 0.0
2017-Sep-12 19:59N 05°38' E 000°01'0 0.0
2017-Sep-12 19:29N 05°38' E 000°01'0 0.0
2017-Sep-12 18:59N 05°38' E 000°01'0 0.0
2017-Sep-12 18:29N 05°38' E 000°01'0 0.0
2017-Sep-12 17:59N 05°38' E 000°01'0 0.0
2017-Sep-12 17:29N 05°38' E 000°01'0 0.0
2017-Sep-12 16:59N 05°38' E 000°01'0 0.0
2017-Sep-12 16:29N 05°38' E 000°01'0 0.0
2017-Sep-12 15:59N 05°38' E 000°01'0 0.0
2017-Sep-12 15:29N 05°38' E 000°01'0 0.0
2017-Sep-12 14:59N 05°38' E 000°01'0 0.0
2017-Sep-12 14:29N 05°38' E 000°01'0 0.0
2017-Sep-12 13:59N 05°38' E 000°01'0 0.0
2017-Sep-12 13:29N 05°38' E 000°01'0 0.0
2017-Sep-12 12:59N 05°38' E 000°01'0 0.0
2017-Sep-12 12:29N 05°38' E 000°01'0 0.0
2017-Sep-12 11:59N 05°38' E 000°01'0 0.2
2017-Sep-12 11:29N 05°38' E 000°01'0 0.0
2017-Sep-12 10:59N 05°38' E 000°01'0 0.0
2017-Sep-12 10:29N 05°38' E 000°01'0 0.0
2017-Sep-12 09:59N 05°38' E 000°01'0 0.0
2017-Sep-12 09:29N 05°38' E 000°01'0 0.0
2017-Sep-12 08:59N 05°38' E 000°01'0 0.0
2017-Sep-12 08:29N 05°38' E 000°01'0 0.0
2017-Sep-12 07:59N 05°38' E 000°01'0 0.0
2017-Sep-12 07:29N 05°38' E 000°01'0 0.0
2017-Sep-12 06:59N 05°38' E 000°01'0 0.0
2017-Sep-12 06:29N 05°38' E 000°01'0 0.0
2017-Sep-12 05:59N 05°38' E 000°01'0 0.0
2017-Sep-12 05:29N 05°38' E 000°01'0 0.0
2017-Sep-12 04:59N 05°38' E 000°01'0 0.0
2017-Sep-12 04:29N 05°38' E 000°01'0 0.0
2017-Sep-12 03:59N 05°38' E 000°01'0 0.0
2017-Sep-12 03:29N 05°38' E 000°01'0 0.0
2017-Sep-12 02:59N 05°38' E 000°01'0 0.0
2017-Sep-12 02:29N 05°38' E 000°01'0 0.0
2017-Sep-12 01:59N 05°38' E 000°01'0 0.0
2017-Sep-12 01:29N 05°38' E 000°01'0 0.0
2017-Sep-12 00:59N 05°38' E 000°01'0 0.0
2017-Sep-12 00:29N 05°38' E 000°01'0 0.0
2017-Sep-11 23:59N 05°38' E 000°01'0 0.0
2017-Sep-11 23:29N 05°38' E 000°01'0 0.0
2017-Sep-11 22:59N 05°38' E 000°01'0 0.0
2017-Sep-11 22:29N 05°38' E 000°01'0 0.0
2017-Sep-11 21:59N 05°38' E 000°01'0 0.0
2017-Sep-11 21:29N 05°38' E 000°01'0 0.0
2017-Sep-11 20:59N 05°38' E 000°01'0 0.0
2017-Sep-11 20:29N 05°38' E 000°01'0 0.0
2017-Sep-11 19:59N 05°38' E 000°01'0 0.0
2017-Sep-11 19:29N 05°38' E 000°01'0 0.0
2017-Sep-11 18:59N 05°38' E 000°01'0 0.0
2017-Sep-11 18:29N 05°38' E 000°01'0 0.0
2017-Sep-11 17:59N 05°38' E 000°01'0 0.0
2017-Sep-11 17:29N 05°38' E 000°01'0 0.0
2017-Sep-11 16:53N 05°38' E 000°01'0 0.0
2017-Sep-11 16:29N 05°38' E 000°01'0 0.0
2017-Sep-11 15:59N 05°38' E 000°01'0 0.0
2017-Sep-11 15:29N 05°38' E 000°01'0 0.0
2017-Sep-11 14:59N 05°38' E 000°01'0 0.0
2017-Sep-11 14:29N 05°38' E 000°01'0 0.0
2017-Sep-11 13:59N 05°38' E 000°01'0 0.0
2017-Sep-11 13:26N 05°38' E 000°01'0 0.0
2017-Sep-11 12:59N 05°38' E 000°01'0 0.0
2017-Sep-11 12:29N 05°38' E 000°01'0 0.0
2017-Sep-11 11:59N 05°38' E 000°01'0 0.0
2017-Sep-11 11:29N 05°38' E 000°01'0 0.0
2017-Sep-11 10:59N 05°38' E 000°01'0 0.0
2017-Sep-11 10:29N 05°38' E 000°01'0 0.0
2017-Sep-11 09:59N 05°38' E 000°01'0 0.0
2017-Sep-11 09:29N 05°38' E 000°01'0 0.0
2017-Sep-11 08:59N 05°38' E 000°01'0 0.0
2017-Sep-11 08:29N 05°38' E 000°01'0 0.0
2017-Sep-11 07:59N 05°38' E 000°01'0 0.0
2017-Sep-11 07:29N 05°38' E 000°01'0 0.0
2017-Sep-11 06:56N 05°38' E 000°01'0 0.0
2017-Sep-11 06:29N 05°38' E 000°01'0 0.0
2017-Sep-11 05:59N 05°38' E 000°01'0 0.0
2017-Sep-11 05:29N 05°38' E 000°01'0 0.0
2017-Sep-11 04:59N 05°38' E 000°01'0 0.0
2017-Sep-11 04:29N 05°38' E 000°01'0 0.0
2017-Sep-11 03:59N 05°38' E 000°01'0 0.0
2017-Sep-11 03:29N 05°38' E 000°01'0 0.0
2017-Sep-11 02:59N 05°38' E 000°01'0 0.0
2017-Sep-11 02:29N 05°38' E 000°01'0 0.0
2017-Sep-11 01:59N 05°38' E 000°01'0 0.0
2017-Sep-11 01:29N 05°38' E 000°01'0 0.0
2017-Sep-11 00:59N 05°38' E 000°01'0 0.0
2017-Sep-11 00:29N 05°38' E 000°01'0 0.0
2017-Sep-10 23:59N 05°38' E 000°01'0 0.0
2017-Sep-10 23:29N 05°38' E 000°01'0 0.0
2017-Sep-10 22:59N 05°38' E 000°01'0 0.0
2017-Sep-10 22:29N 05°38' E 000°01'0 0.0
2017-Sep-10 21:59N 05°38' E 000°01'0 0.0
2017-Sep-10 21:29N 05°38' E 000°01'0 0.0
2017-Sep-10 20:59N 05°38' E 000°01'0 0.0
2017-Sep-10 20:29N 05°38' E 000°01'0 0.0
2017-Sep-10 19:59N 05°38' E 000°01'0 0.0
2017-Sep-10 19:29N 05°38' E 000°01'0 0.0
2017-Sep-10 18:59N 05°38' E 000°01'0 0.0
2017-Sep-10 18:29N 05°38' E 000°01'0 0.0
2017-Sep-10 17:59N 05°38' E 000°01'0 0.0
2017-Sep-10 17:29N 05°38' E 000°01'0 0.0
2017-Sep-10 16:59N 05°38' E 000°01'0 0.0
2017-Sep-10 16:29N 05°38' E 000°01'0 0.0
2017-Sep-10 15:59N 05°38' E 000°01'0 0.0
2017-Sep-10 15:29N 05°38' E 000°01'0 0.0
2017-Sep-10 14:59N 05°38' E 000°01'0 0.0
2017-Sep-10 13:59N 05°38' E 000°01'0 0.0
2017-Sep-10 13:29N 05°38' E 000°01'0 0.0
2017-Sep-10 12:59N 05°38' E 000°01'0 0.0
2017-Sep-10 12:29N 05°38' E 000°01'0 0.0
2017-Sep-10 11:59N 05°38' E 000°01'0 0.0
2017-Sep-10 11:29N 05°38' E 000°01'0 0.0
2017-Sep-10 10:59N 05°38' E 000°01'0 0.0
2017-Sep-10 10:29N 05°38' E 000°01'0 0.0
2017-Sep-10 09:59N 05°38' E 000°01'0 0.0
2017-Sep-10 09:29N 05°38' E 000°01'0 0.0
2017-Sep-10 08:59N 05°38' E 000°01'0 0.0
2017-Sep-10 08:29N 05°38' E 000°01'0 0.0
2017-Sep-10 07:59N 05°38' E 000°01'0 0.0
2017-Sep-10 07:29N 05°38' E 000°01'0 0.0
2017-Sep-10 06:59N 05°38' E 000°01'0 0.0
2017-Sep-10 06:29N 05°38' E 000°01'0 0.0
2017-Sep-10 05:59N 05°38' E 000°01'0 0.0
2017-Sep-10 05:29N 05°38' E 000°01'0 0.0
2017-Sep-10 04:59N 05°38' E 000°01'0 0.0
2017-Sep-10 04:29N 05°38' E 000°01'0 0.0
2017-Sep-10 03:59N 05°38' E 000°01'0 0.0
2017-Sep-10 03:29N 05°38' E 000°01'0 0.0
2017-Sep-10 02:59N 05°38' E 000°01'0 0.0
2017-Sep-10 02:29N 05°38' E 000°01'0 0.0
2017-Sep-10 01:59N 05°38' E 000°01'0 0.0
2017-Sep-10 01:29N 05°38' E 000°01'0 0.0
2017-Sep-10 00:59N 05°38' E 000°01'0 0.0
2017-Sep-10 00:29N 05°38' E 000°01'0 0.0
2017-Sep-09 23:59N 05°38' E 000°01'0 0.0
2017-Sep-09 23:29N 05°38' E 000°01'0 0.0
2017-Sep-09 22:59N 05°38' E 000°01'0 0.0
2017-Sep-09 22:29N 05°38' E 000°01'0 0.0
2017-Sep-09 21:59N 05°38' E 000°01'0 0.0
2017-Sep-09 21:29N 05°38' E 000°01'0 0.0
2017-Sep-09 20:59N 05°38' E 000°01'0 0.0
2017-Sep-09 20:29N 05°38' E 000°01'0 0.0
2017-Sep-09 19:59N 05°38' E 000°01'0 0.0
2017-Sep-09 19:29N 05°38' E 000°01'0 0.0
2017-Sep-09 18:59N 05°38' E 000°01'0 0.0
2017-Sep-09 18:29N 05°38' E 000°01'  
Track history (hours):
 
Tides and Currents Weather Stations Pressure Air Temp Water Temp Dewpoint Dewpoint Depression Visibility Wind Speed Wind Dir Waves Ship Positions

Qu Shan Hai

Last reported at 2017-Sep-19 18:09 UTC. Time now 2017-Sep-22 02:45 UTC.
Position N 04°53' W 001°44'.

Length 190 m; draft 7.1 m.

Type: Cargo ship. MMSI: 353693000.

Date/timePositionNaut miles runAvg speedWind from/ knotsBaromVisibWave heightAir tempDewpointWater temp
2017-Sep-19 18:09N 04°53' W 001°44'0 0.0
2017-Sep-19 18:00N 04°53' W 001°44'0 0.0
2017-Sep-19 17:30N 04°53' W 001°44'0 0.0
2017-Sep-19 17:00N 04°53' W 001°44'0 0.0
2017-Sep-19 16:30N 04°53' W 001°44'0 0.0
2017-Sep-19 16:00N 04°53' W 001°44'0 0.0
2017-Sep-19 15:30N 04°53' W 001°44'0 0.0
2017-Sep-19 15:00N 04°53' W 001°44'0 0.0
2017-Sep-19 14:30N 04°53' W 001°44'0 0.0
2017-Sep-19 14:00N 04°53' W 001°44'0 0.0
2017-Sep-19 13:30N 04°53' W 001°44'0 0.0
2017-Sep-19 13:00N 04°53' W 001°44'0 0.0
2017-Sep-19 12:30N 04°53' W 001°44'0 0.0
2017-Sep-19 12:00N 04°53' W 001°44'0 0.0
2017-Sep-19 11:30N 04°53' W 001°44'0 0.0
2017-Sep-19 11:00N 04°53' W 001°44'0 0.0
2017-Sep-19 10:30N 04°53' W 001°44'0 0.0
2017-Sep-19 10:00N 04°53' W 001°44'0 0.0
2017-Sep-19 09:30N 04°53' W 001°44'0 0.0
2017-Sep-19 09:00N 04°53' W 001°44'0 0.0
2017-Sep-19 08:30N 04°53' W 001°44'0 0.0
2017-Sep-19 08:00N 04°53' W 001°44'0 0.0
2017-Sep-19 07:24N 04°53' W 001°44'0 0.0
2017-Sep-19 07:00N 04°53' W 001°44'0 0.0
2017-Sep-19 06:30N 04°53' W 001°44'0 0.0
2017-Sep-19 05:57N 04°53' W 001°44'0 0.0
2017-Sep-17 23:54N 04°53' W 001°44'0 0.0
2017-Sep-17 23:12N 04°53' W 001°44'0 0.0
2017-Sep-17 09:08N 04°53' W 001°44'0 0.1
2017-Sep-17 08:59N 04°53' W 001°44'10 0.3
2017-Sep-16 02:17N 04°45' W 001°38'512.3
2017-Sep-16 01:53N 04°50' W 001°40'2 5.6
2017-Sep-16 01:26N 04°52' W 001°40'4 9.1
2017-Sep-16 00:59N 04°49' W 001°37'100 9.1
2017-Sep-15 13:56N 05°08' E 000°02'613.4
2017-Sep-15 13:30N 05°13' E 000°03'713.3
2017-Sep-15 13:01N 05°20' E 000°04'713.3
2017-Sep-15 12:31N 05°27' E 000°05'713.1
2017-Sep-15 12:01N 05°33' E 000°05'611.5
2017-Sep-15 11:31N 05°38' E 000°02'1 2.2
2017-Sep-15 10:59N 05°38' E 000°01'0 0.0
2017-Sep-15 10:29N 05°38' E 000°01'0 0.0
2017-Sep-15 09:59N 05°38' E 000°01'0 0.0
2017-Sep-15 09:29N 05°38' E 000°01'0 0.0
2017-Sep-15 08:59N 05°38' E 000°01'0 0.0
2017-Sep-15 08:29N 05°38' E 000°01'0 0.0
2017-Sep-15 07:59N 05°38' E 000°01'0 0.0
2017-Sep-15 07:29N 05°38' E 000°01'0 0.0
2017-Sep-15 06:59N 05°38' E 000°01'0 0.0
2017-Sep-15 06:29N 05°38' E 000°01'0 0.0
2017-Sep-15 05:59N 05°38' E 000°01'0 0.0
2017-Sep-15 05:29N 05°38' E 000°01'0 0.0
2017-Sep-15 04:56N 05°38' E 000°01'0 0.0
2017-Sep-15 04:29N 05°38' E 000°01'0 0.0
2017-Sep-15 03:59N 05°38' E 000°01'0 0.0
2017-Sep-15 03:29N 05°38' E 000°01'0 0.0
2017-Sep-15 02:59N 05°38' E 000°01'0 0.0
2017-Sep-15 02:29N 05°38' E 000°01'0 0.0
2017-Sep-15 01:59N 05°38' E 000°01'0 0.0
2017-Sep-15 01:26N 05°38' E 000°01'0 0.0
2017-Sep-15 00:59N 05°38' E 000°01'0 0.0
2017-Sep-15 00:29N 05°38' E 000°01'0 0.0
2017-Sep-14 23:59N 05°38' E 000°01'0 0.0
2017-Sep-14 23:29N 05°38' E 000°01'0 0.0
2017-Sep-14 22:59N 05°38' E 000°01'0 0.0
2017-Sep-14 22:29N 05°38' E 000°01'0 0.0
2017-Sep-14 21:59N 05°38' E 000°01'0 0.0
2017-Sep-14 21:29N 05°38' E 000°01'0 0.0
2017-Sep-14 20:59N 05°38' E 000°01'0 0.0
2017-Sep-14 20:29N 05°38' E 000°01'0 0.0
2017-Sep-14 19:59N 05°38' E 000°01'0 0.0
2017-Sep-14 19:29N 05°38' E 000°01'0 0.0
2017-Sep-14 18:59N 05°38' E 000°01'0 0.0
2017-Sep-14 18:29N 05°38' E 000°01'0 0.0
2017-Sep-14 17:59N 05°38' E 000°01'0 0.0
2017-Sep-14 17:23N 05°38' E 000°01'0 0.0
2017-Sep-14 16:59N 05°38' E 000°01'0 0.0
2017-Sep-14 16:29N 05°38' E 000°01'0 0.0
2017-Sep-14 15:59N 05°38' E 000°01'0 0.0
2017-Sep-14 15:29N 05°38' E 000°01'0 0.0
2017-Sep-14 14:59N 05°38' E 000°01'0 0.0
2017-Sep-14 14:29N 05°38' E 000°01'0 0.0
2017-Sep-14 13:59N 05°38' E 000°01'0 0.0
2017-Sep-14 13:29N 05°38' E 000°01'0 0.0
2017-Sep-14 12:59N 05°38' E 000°01'0 0.0
2017-Sep-14 12:29N 05°38' E 000°01'0 0.0
2017-Sep-14 11:59N 05°38' E 000°01'0 0.0
2017-Sep-14 11:29N 05°38' E 000°01'0 0.0
2017-Sep-14 10:50N 05°38' E 000°01'0 0.0
2017-Sep-14 10:29N 05°38' E 000°01'0 0.0
2017-Sep-14 09:59N 05°38' E 000°01'0 0.0
2017-Sep-14 09:29N 05°38' E 000°01'0 0.0
2017-Sep-14 08:59N 05°38' E 000°01'0 0.0
2017-Sep-14 08:29N 05°38' E 000°01'0 0.0
2017-Sep-14 07:59N 05°38' E 000°01'0 0.0
2017-Sep-14 07:29N 05°38' E 000°01'0 0.0
2017-Sep-14 06:59N 05°38' E 000°01'0 0.0
2017-Sep-14 06:29N 05°38' E 000°01'0 0.0
2017-Sep-14 05:59N 05°38' E 000°01'0 0.0
2017-Sep-14 05:29N 05°38' E 000°01'0 0.0
2017-Sep-14 04:59N 05°38' E 000°01'0 0.0
2017-Sep-14 04:29N 05°38' E 000°01'0 0.0
2017-Sep-14 03:59N 05°38' E 000°01'0 0.0
2017-Sep-14 03:23N 05°38' E 000°01'0 0.0
2017-Sep-14 02:59N 05°38' E 000°01'0 0.0
2017-Sep-14 02:29N 05°38' E 000°01'0 0.0
2017-Sep-14 01:59N 05°38' E 000°01'0 0.0
2017-Sep-14 01:29N 05°38' E 000°01'0 0.0
2017-Sep-14 00:59N 05°38' E 000°01'0 0.0
2017-Sep-14 00:29N 05°38' E 000°01'0 0.0
2017-Sep-13 23:59N 05°38' E 000°01'0 0.0
2017-Sep-13 23:29N 05°38' E 000°01'0 0.0
2017-Sep-13 22:59N 05°38' E 000°01'0 0.0
2017-Sep-13 22:29N 05°38' E 000°01'0 0.0
2017-Sep-13 21:59N 05°38' E 000°01'0 0.0
2017-Sep-13 21:26N 05°38' E 000°01'0 0.0
2017-Sep-13 20:59N 05°38' E 000°01'0 0.0
2017-Sep-13 20:29N 05°38' E 000°01'0 0.0
2017-Sep-13 19:59N 05°38' E 000°01'0 0.0
2017-Sep-13 19:29N 05°38' E 000°01'0 0.0
2017-Sep-13 18:53N 05°38' E 000°01'0 0.0
2017-Sep-13 18:29N 05°38' E 000°01'0 0.0
2017-Sep-13 17:59N 05°38' E 000°01'0 0.0
2017-Sep-13 17:29N 05°38' E 000°01'0 0.0
2017-Sep-13 16:59N 05°38' E 000°01'0 0.0
2017-Sep-13 16:29N 05°38' E 000°01'0 0.0
2017-Sep-13 15:59N 05°38' E 000°01'0 0.0
2017-Sep-13 15:26N 05°38' E 000°01'0 0.0
2017-Sep-13 14:59N 05°38' E 000°01'0 0.0
2017-Sep-13 14:29N 05°38' E 000°01'0 0.0
2017-Sep-13 13:59N 05°38' E 000°01'0 0.0
2017-Sep-13 13:26N 05°38' E 000°01'0 0.0
2017-Sep-13 12:59N 05°38' E 000°01'0 0.0
2017-Sep-13 12:29N 05°38' E 000°01'0 0.0
2017-Sep-13 11:59N 05°38' E 000°01'0 0.0
2017-Sep-13 11:29N 05°38' E 000°01'0 0.0
2017-Sep-13 10:59N 05°38' E 000°01'0 0.0
2017-Sep-13 10:29N 05°38' E 000°01'0 0.0
2017-Sep-13 09:59N 05°38' E 000°01'0 0.0
2017-Sep-13 09:29N 05°38' E 000°01'0 0.0
2017-Sep-13 08:59N 05°38' E 000°01'0 0.0
2017-Sep-13 08:29N 05°38' E 000°01'0 0.0
2017-Sep-13 07:59N 05°38' E 000°01'0 0.0
2017-Sep-13 07:29N 05°38' E 000°01'0 0.0
2017-Sep-13 06:59N 05°38' E 000°01'0 0.0
2017-Sep-13 06:29N 05°38' E 000°01'0 0.0
2017-Sep-13 05:59N 05°38' E 000°01'0 0.0
2017-Sep-13 05:29N 05°38' E 000°01'0 0.0
2017-Sep-13 04:59N 05°38' E 000°01'0 0.0
2017-Sep-13 04:29N 05°38' E 000°01'0 0.0
2017-Sep-13 03:59N 05°38' E 000°01'0 0.0
2017-Sep-13 03:26N 05°38' E 000°01'0 0.0
2017-Sep-13 02:59N 05°38' E 000°01'0 0.0
2017-Sep-13 02:29N 05°38' E 000°01'0 0.0
2017-Sep-13 01:59N 05°38' E 000°01'0 0.0
2017-Sep-13 01:29N 05°38' E 000°01'0 0.0
2017-Sep-13 00:59N 05°38' E 000°01'0 0.0
2017-Sep-13 00:29N 05°38' E 000°01'0 0.0
2017-Sep-12 23:59N 05°38' E 000°01'0 0.0
2017-Sep-12 23:29N 05°38' E 000°01'0 0.0
2017-Sep-12 22:59N 05°38' E 000°01'0 0.0
2017-Sep-12 22:29N 05°38' E 000°01'0 0.0
2017-Sep-12 21:59N 05°38' E 000°01'0 0.0
2017-Sep-12 21:29N 05°38' E 000°01'0 0.0
2017-Sep-12 20:59N 05°38' E 000°01'0 0.0
2017-Sep-12 20:29N 05°38' E 000°01'0 0.0
2017-Sep-12 19:59N 05°38' E 000°01'0 0.0
2017-Sep-12 19:29N 05°38' E 000°01'0 0.0
2017-Sep-12 18:59N 05°38' E 000°01'0 0.0
2017-Sep-12 18:29N 05°38' E 000°01'0 0.0
2017-Sep-12 17:59N 05°38' E 000°01'0 0.0
2017-Sep-12 17:29N 05°38' E 000°01'0 0.0
2017-Sep-12 16:59N 05°38' E 000°01'0 0.0
2017-Sep-12 16:29N 05°38' E 000°01'0 0.0
2017-Sep-12 15:59N 05°38' E 000°01'0 0.0
2017-Sep-12 15:29N 05°38' E 000°01'0 0.0
2017-Sep-12 14:59N 05°38' E 000°01'0 0.0
2017-Sep-12 14:29N 05°38' E 000°01'0 0.0
2017-Sep-12 13:59N 05°38' E 000°01'0 0.0
2017-Sep-12 13:29N 05°38' E 000°01'0 0.0
2017-Sep-12 12:59N 05°38' E 000°01'0 0.0
2017-Sep-12 12:29N 05°38' E 000°01'0 0.0
2017-Sep-12 11:59N 05°38' E 000°01'0 0.2
2017-Sep-12 11:29N 05°38' E 000°01'0 0.0
2017-Sep-12 10:59N 05°38' E 000°01'0 0.0
2017-Sep-12 10:29N 05°38' E 000°01'0 0.0
2017-Sep-12 09:59N 05°38' E 000°01'0 0.0
2017-Sep-12 09:29N 05°38' E 000°01'0 0.0
2017-Sep-12 08:59N 05°38' E 000°01'0 0.0
2017-Sep-12 08:29N 05°38' E 000°01'0 0.0
2017-Sep-12 07:59N 05°38' E 000°01'0 0.0
2017-Sep-12 07:29N 05°38' E 000°01'0 0.0
2017-Sep-12 06:59N 05°38' E 000°01'0 0.0
2017-Sep-12 06:29N 05°38' E 000°01'0 0.0
2017-Sep-12 05:59N 05°38' E 000°01'0 0.0
2017-Sep-12 05:29N 05°38' E 000°01'0 0.0
2017-Sep-12 04:59N 05°38' E 000°01'0 0.0
2017-Sep-12 04:29N 05°38' E 000°01'0 0.0
2017-Sep-12 03:59N 05°38' E 000°01'0 0.0
2017-Sep-12 03:29N 05°38' E 000°01'0 0.0
2017-Sep-12 02:59N 05°38' E 000°01'0 0.0
2017-Sep-12 02:29N 05°38' E 000°01'0 0.0
2017-Sep-12 01:59N 05°38' E 000°01'0 0.0
2017-Sep-12 01:29N 05°38' E 000°01'0 0.0
2017-Sep-12 00:59N 05°38' E 000°01'0 0.0
2017-Sep-12 00:29N 05°38' E 000°01'0 0.0
2017-Sep-11 23:59N 05°38' E 000°01'0 0.0
2017-Sep-11 23:29N 05°38' E 000°01'0 0.0
2017-Sep-11 22:59N 05°38' E 000°01'0 0.0
2017-Sep-11 22:29N 05°38' E 000°01'0 0.0
2017-Sep-11 21:59N 05°38' E 000°01'0 0.0
2017-Sep-11 21:29N 05°38' E 000°01'0 0.0
2017-Sep-11 20:59N 05°38' E 000°01'0 0.0
2017-Sep-11 20:29N 05°38' E 000°01'0 0.0
2017-Sep-11 19:59N 05°38' E 000°01'0 0.0
2017-Sep-11 19:29N 05°38' E 000°01'0 0.0
2017-Sep-11 18:59N 05°38' E 000°01'0 0.0
2017-Sep-11 18:29N 05°38' E 000°01'0 0.0
2017-Sep-11 17:59N 05°38' E 000°01'0 0.0
2017-Sep-11 17:29N 05°38' E 000°01'0 0.0
2017-Sep-11 16:53N 05°38' E 000°01'0 0.0
2017-Sep-11 16:29N 05°38' E 000°01'0 0.0
2017-Sep-11 15:59N 05°38' E 000°01'0 0.0
2017-Sep-11 15:29N 05°38' E 000°01'0 0.0
2017-Sep-11 14:59N 05°38' E 000°01'0 0.0
2017-Sep-11 14:29N 05°38' E 000°01'0 0.0
2017-Sep-11 13:59N 05°38' E 000°01'0 0.0
2017-Sep-11 13:26N 05°38' E 000°01'0 0.0
2017-Sep-11 12:59N 05°38' E 000°01'0 0.0
2017-Sep-11 12:29N 05°38' E 000°01'0 0.0
2017-Sep-11 11:59N 05°38' E 000°01'0 0.0
2017-Sep-11 11:29N 05°38' E 000°01'0 0.0
2017-Sep-11 10:59N 05°38' E 000°01'0 0.0
2017-Sep-11 10:29N 05°38' E 000°01'0 0.0
2017-Sep-11 09:59N 05°38' E 000°01'0 0.0
2017-Sep-11 09:29N 05°38' E 000°01'0 0.0
2017-Sep-11 08:59N 05°38' E 000°01'0 0.0
2017-Sep-11 08:29N 05°38' E 000°01'0 0.0
2017-Sep-11 07:59N 05°38' E 000°01'0 0.0
2017-Sep-11 07:29N 05°38' E 000°01'0 0.0
2017-Sep-11 06:56N 05°38' E 000°01'0 0.0
2017-Sep-11 06:29N 05°38' E 000°01'0 0.0
2017-Sep-11 05:59N 05°38' E 000°01'0 0.0
2017-Sep-11 05:29N 05°38' E 000°01'0 0.0
2017-Sep-11 04:59N 05°38' E 000°01'0 0.0
2017-Sep-11 04:29N 05°38' E 000°01'0 0.0
2017-Sep-11 03:59N 05°38' E 000°01'0 0.0
2017-Sep-11 03:29N 05°38' E 000°01'0 0.0
2017-Sep-11 02:59N 05°38' E 000°01'0 0.0
2017-Sep-11 02:29N 05°38' E 000°01'0 0.0
2017-Sep-11 01:59N 05°38' E 000°01'0 0.0
2017-Sep-11 01:29N 05°38' E 000°01'0 0.0
2017-Sep-11 00:59N 05°38' E 000°01'0 0.0
2017-Sep-11 00:29N 05°38' E 000°01'0 0.0
2017-Sep-10 23:59N 05°38' E 000°01'0 0.0
2017-Sep-10 23:29N 05°38' E 000°01'0 0.0
2017-Sep-10 22:59N 05°38' E 000°01'0 0.0
2017-Sep-10 22:29N 05°38' E 000°01'0 0.0
2017-Sep-10 21:59N 05°38' E 000°01'0 0.0
2017-Sep-10 21:29N 05°38' E 000°01'0 0.0
2017-Sep-10 20:59N 05°38' E 000°01'0 0.0
2017-Sep-10 20:29N 05°38' E 000°01'0 0.0
2017-Sep-10 19:59N 05°38' E 000°01'0 0.0
2017-Sep-10 19:29N 05°38' E 000°01'0 0.0
2017-Sep-10 18:59N 05°38' E 000°01'0 0.0
2017-Sep-10 18:29N 05°38' E 000°01'0 0.0
2017-Sep-10 17:59N 05°38' E 000°01'0 0.0
2017-Sep-10 17:29N 05°38' E 000°01'0 0.0
2017-Sep-10 16:59N 05°38' E 000°01'0 0.0
2017-Sep-10 16:29N 05°38' E 000°01'0 0.0
2017-Sep-10 15:59N 05°38' E 000°01'0 0.0
2017-Sep-10 15:29N 05°38' E 000°01'0 0.0
2017-Sep-10 14:59N 05°38' E 000°01'0 0.0
2017-Sep-10 13:59N 05°38' E 000°01'0 0.0
2017-Sep-10 13:29N 05°38' E 000°01'0 0.0
2017-Sep-10 12:59N 05°38' E 000°01'0 0.0
2017-Sep-10 12:29N 05°38' E 000°01'0 0.0
2017-Sep-10 11:59N 05°38' E 000°01'0 0.0
2017-Sep-10 11:29N 05°38' E 000°01'0 0.0
2017-Sep-10 10:59N 05°38' E 000°01'0 0.0
2017-Sep-10 10:29N 05°38' E 000°01'0 0.0
2017-Sep-10 09:59N 05°38' E 000°01'0 0.0
2017-Sep-10 09:29N 05°38' E 000°01'0 0.0
2017-Sep-10 08:59N 05°38' E 000°01'0 0.0
2017-Sep-10 08:29N 05°38' E 000°01'0 0.0
2017-Sep-10 07:59N 05°38' E 000°01'0 0.0
2017-Sep-10 07:29N 05°38' E 000°01'0 0.0
2017-Sep-10 06:59N 05°38' E 000°01'0 0.0
2017-Sep-10 06:29N 05°38' E 000°01'0 0.0
2017-Sep-10 05:59N 05°38' E 000°01'0 0.0
2017-Sep-10 05:29N 05°38' E 000°01'0 0.0
2017-Sep-10 04:59N 05°38' E 000°01'0 0.0
2017-Sep-10 04:29N 05°38' E 000°01'0 0.0
2017-Sep-10 03:59N 05°38' E 000°01'0 0.0
2017-Sep-10 03:29N 05°38' E 000°01'0 0.0
2017-Sep-10 02:59N 05°38' E 000°01'0 0.0
2017-Sep-10 02:29N 05°38' E 000°01'0 0.0
2017-Sep-10 01:59N 05°38' E 000°01'0 0.0
2017-Sep-10 01:29N 05°38' E 000°01'0 0.0
2017-Sep-10 00:59N 05°38' E 000°01'0 0.0
2017-Sep-10 00:29N 05°38' E 000°01'0 0.0
2017-Sep-09 23:59N 05°38' E 000°01'0 0.0
2017-Sep-09 23:29N 05°38' E 000°01'0 0.0
2017-Sep-09 22:59N 05°38' E 000°01'0 0.0
2017-Sep-09 22:29N 05°38' E 000°01'0 0.0
2017-Sep-09 21:59N 05°38' E 000°01'0 0.0
2017-Sep-09 21:29N 05°38' E 000°01'0 0.0
2017-Sep-09 20:59N 05°38' E 000°01'0 0.0
2017-Sep-09 20:29N 05°38' E 000°01'0 0.0
2017-Sep-09 19:59N 05°38' E 000°01'0 0.0
2017-Sep-09 19:29N 05°38' E 000°01'0 0.0
2017-Sep-09 18:59N 05°38' E 000°01'0 0.0
2017-Sep-09 18:29N 05°38' E 000°01'  

Dump ship's entire track history